createdAt,value
2019-06-27T00:00:49.192Z,58.90
2019-06-27T00:03:18.372Z,59.40
2019-06-27T00:05:47.497Z,59.10
2019-06-27T00:08:16.616Z,59.20
2019-06-27T00:10:46.028Z,59.20
2019-06-27T00:13:15.109Z,59.20
2019-06-27T00:15:44.259Z,59.30
2019-06-27T00:18:13.365Z,59.60
2019-06-27T00:20:42.514Z,59.60
2019-06-27T00:23:11.659Z,59.60
2019-06-27T00:25:40.767Z,60.20
2019-06-27T00:28:09.884Z,60.30
2019-06-27T00:30:39.003Z,60.50
2019-06-27T00:33:08.091Z,60.60
2019-06-27T00:35:37.697Z,61.00
2019-06-27T00:38:06.784Z,60.40
2019-06-27T00:40:35.903Z,61.00
2019-06-27T00:43:05.007Z,61.00
2019-06-27T00:45:34.224Z,61.00
2019-06-27T00:48:03.346Z,61.00
2019-06-27T00:50:32.427Z,61.00
2019-06-27T00:53:01.553Z,61.30
2019-06-27T00:55:30.659Z,61.20
2019-06-27T00:57:59.819Z,61.00
2019-06-27T01:00:28.929Z,61.50
2019-06-27T01:02:58.062Z,61.60
2019-06-27T01:05:27.173Z,61.30
2019-06-27T01:07:56.269Z,61.60
2019-06-27T01:10:25.352Z,62.00
2019-06-27T01:12:54.458Z,62.00
2019-06-27T01:15:23.665Z,62.20
2019-06-27T01:17:52.771Z,62.10
2019-06-27T01:20:21.885Z,62.00
2019-06-27T01:22:50.994Z,62.20
2019-06-27T01:25:20.116Z,62.30
2019-06-27T01:27:49.258Z,62.10
2019-06-27T01:30:18.836Z,62.40
2019-06-27T01:32:47.942Z,62.60
2019-06-27T01:35:17.008Z,62.70
2019-06-27T01:37:46.148Z,62.70
2019-06-27T01:40:15.647Z,62.90
2019-06-27T01:42:44.779Z,62.70
2019-06-27T01:45:19.766Z,63.10
2019-06-27T01:47:48.793Z,63.00
2019-06-27T01:50:17.889Z,63.30
2019-06-27T01:52:46.985Z,63.30
2019-06-27T01:55:17.062Z,63.50
2019-06-27T01:57:47.347Z,63.60
2019-06-27T02:00:18.606Z,64.10
2019-06-27T02:02:47.727Z,64.20
2019-06-27T02:05:16.897Z,64.20
2019-06-27T02:07:46.101Z,64.20
2019-06-27T02:10:15.592Z,64.20
2019-06-27T02:12:44.733Z,64.10
2019-06-27T02:15:15.246Z,64.10
2019-06-27T02:17:44.377Z,64.30
2019-06-27T02:20:14.052Z,64.20
2019-06-27T02:22:43.195Z,64.20
2019-06-27T02:25:13.213Z,64.10
2019-06-27T02:27:42.331Z,64.00
2019-06-27T02:30:13.291Z,64.40
2019-06-27T02:32:42.471Z,64.50
2019-06-27T02:35:11.829Z,64.70
2019-06-27T02:37:41.118Z,64.70
2019-06-27T02:40:10.856Z,64.70
2019-06-27T02:42:39.975Z,64.90
2019-06-27T02:45:09.453Z,65.70
2019-06-27T02:47:38.558Z,64.90
2019-06-27T02:50:07.915Z,65.30
2019-06-27T02:52:37.058Z,64.90
2019-06-27T02:55:06.199Z,65.10
2019-06-27T02:57:35.301Z,65.40
2019-06-27T03:00:04.459Z,66.00
2019-06-27T03:02:33.556Z,65.10
2019-06-27T03:05:02.664Z,65.30
2019-06-27T03:07:31.752Z,65.40
2019-06-27T03:10:00.931Z,65.30
2019-06-27T03:12:30.264Z,65.90
2019-06-27T03:14:59.382Z,66.20
2019-06-27T03:17:28.500Z,66.30
2019-06-27T03:19:57.714Z,66.40
2019-06-27T03:22:26.831Z,66.50
2019-06-27T03:24:55.996Z,66.30
2019-06-27T03:27:25.088Z,66.60
2019-06-27T03:29:54.311Z,66.80
2019-06-27T03:32:23.430Z,66.70
2019-06-27T03:34:52.561Z,66.80
2019-06-27T03:37:21.622Z,66.90
2019-06-27T03:39:50.755Z,67.00
2019-06-27T03:42:19.871Z,66.90
2019-06-27T03:44:49.000Z,67.40
2019-06-27T03:47:18.141Z,67.40
2019-06-27T03:49:47.251Z,67.20
2019-06-27T03:52:16.332Z,67.50
2019-06-27T03:54:45.482Z,68.00
2019-06-27T03:57:14.573Z,68.10
2019-06-27T03:59:43.704Z,68.30
2019-06-27T04:02:12.790Z,68.20
2019-06-27T04:04:41.905Z,68.60
2019-06-27T04:07:11.019Z,68.60
2019-06-27T04:09:40.130Z,68.50
2019-06-27T04:12:09.227Z,68.90
2019-06-27T04:14:38.372Z,68.70
2019-06-27T04:17:07.529Z,68.70
2019-06-27T04:19:36.670Z,68.70
2019-06-27T04:22:05.749Z,69.30
2019-06-27T04:24:34.851Z,69.60
2019-06-27T04:27:04.021Z,69.70
2019-06-27T04:29:34.626Z,69.90
2019-06-27T04:32:04.042Z,70.20
2019-06-27T04:34:33.160Z,69.90
2019-06-27T04:37:02.255Z,70.20
2019-06-27T04:39:31.411Z,70.30
2019-06-27T04:42:00.486Z,70.60
2019-06-27T04:44:29.622Z,70.80
2019-06-27T04:46:58.717Z,71.50
2019-06-27T04:49:27.823Z,71.70
2019-06-27T04:51:56.935Z,71.70
2019-06-27T04:54:26.106Z,72.10
2019-06-27T04:56:55.268Z,72.00
2019-06-27T04:59:24.384Z,72.50
2019-06-27T05:01:53.497Z,72.70
2019-06-27T05:04:22.674Z,72.50
2019-06-27T05:06:51.908Z,73.00
2019-06-27T05:09:20.929Z,73.50
2019-06-27T05:11:50.076Z,73.90
2019-06-27T05:14:19.165Z,73.70
2019-06-27T05:16:48.383Z,74.00
2019-06-27T05:19:17.533Z,74.20
2019-06-27T05:21:46.647Z,74.30
2019-06-27T05:24:15.818Z,74.60
2019-06-27T05:26:44.939Z,74.70
2019-06-27T05:29:14.057Z,75.00
2019-06-27T05:31:43.235Z,75.20
2019-06-27T05:34:12.340Z,75.30
2019-06-27T05:36:41.648Z,75.60
2019-06-27T05:39:10.742Z,76.00
2019-06-27T05:41:39.853Z,76.00
2019-06-27T05:44:08.957Z,76.20
2019-06-27T05:46:38.093Z,76.30
2019-06-27T05:49:07.207Z,76.40
2019-06-27T05:51:36.375Z,76.60
2019-06-27T05:54:05.577Z,76.60
2019-06-27T05:56:34.663Z,76.50
2019-06-27T05:59:03.799Z,76.50
2019-06-27T06:01:32.923Z,76.70
2019-06-27T06:04:02.111Z,76.70
2019-06-27T06:06:31.141Z,77.10
2019-06-27T06:09:00.257Z,77.20
2019-06-27T06:11:29.389Z,77.30
2019-06-27T06:13:58.480Z,77.50
2019-06-27T06:16:27.506Z,77.50
2019-06-27T06:18:56.623Z,77.60
2019-06-27T06:21:25.802Z,77.50
2019-06-27T06:23:54.880Z,77.60
2019-06-27T06:26:24.026Z,77.50
2019-06-27T06:28:53.106Z,77.50
2019-06-27T06:31:22.260Z,77.50
2019-06-27T06:33:51.297Z,77.40
2019-06-27T06:36:20.402Z,77.10
2019-06-27T06:38:49.501Z,77.20
2019-06-27T06:41:18.653Z,77.00
2019-06-27T06:43:47.824Z,76.40
2019-06-27T06:46:17.001Z,76.00
2019-06-27T06:48:46.108Z,76.00
2019-06-27T06:51:15.275Z,75.60
2019-06-27T06:53:44.379Z,75.50
2019-06-27T06:56:13.468Z,75.30
2019-06-27T06:58:42.622Z,75.20
2019-06-27T07:01:11.698Z,75.10
2019-06-27T07:03:40.804Z,75.00
2019-06-27T07:06:09.931Z,75.00
2019-06-27T07:08:39.091Z,74.70
2019-06-27T07:11:08.267Z,74.60
2019-06-27T07:13:37.449Z,74.30
2019-06-27T07:16:06.531Z,74.20
2019-06-27T07:18:35.671Z,74.00
2019-06-27T07:21:04.769Z,73.80
2019-06-27T07:23:34.007Z,73.30
2019-06-27T07:26:03.078Z,72.70
2019-06-27T07:28:32.283Z,72.60
2019-06-27T07:31:16.905Z,72.40
2019-06-27T07:33:33.711Z,72.00
2019-06-27T07:36:02.870Z,71.90
2019-06-27T07:38:32.013Z,71.60
2019-06-27T07:41:01.245Z,71.30
2019-06-27T07:43:30.341Z,71.20
2019-06-27T07:45:59.419Z,71.20
2019-06-27T07:48:28.446Z,71.00
2019-06-27T07:50:57.544Z,70.70
2019-06-27T07:53:26.689Z,70.60
2019-06-27T07:55:55.911Z,70.60
2019-06-27T07:58:25.097Z,71.50
2019-06-27T08:00:54.185Z,70.50
2019-06-27T08:03:23.368Z,70.20
2019-06-27T08:05:52.558Z,69.90
2019-06-27T08:08:21.749Z,69.90
2019-06-27T08:10:50.897Z,69.70
2019-06-27T08:13:20.056Z,69.30
2019-06-27T08:15:49.055Z,68.90
2019-06-27T08:18:18.144Z,69.10
2019-06-27T08:20:47.263Z,68.20
2019-06-27T08:23:16.366Z,67.70
2019-06-27T08:25:45.459Z,66.90
2019-06-27T08:28:14.570Z,67.00
2019-06-27T08:30:43.553Z,66.70
2019-06-27T08:33:12.700Z,66.60
2019-06-27T08:35:41.827Z,66.40
2019-06-27T08:38:11.034Z,66.10
2019-06-27T08:40:40.142Z,65.70
2019-06-27T08:43:09.161Z,65.70
2019-06-27T08:45:40.127Z,65.30
2019-06-27T08:48:09.318Z,65.00
2019-06-27T08:50:38.475Z,64.60
2019-06-27T08:53:07.601Z,64.10
2019-06-27T08:55:36.674Z,63.90
2019-06-27T08:58:05.787Z,63.50
2019-06-27T09:00:34.884Z,63.00
2019-06-27T09:03:04.010Z,62.60
2019-06-27T09:05:33.117Z,62.40
2019-06-27T09:08:02.813Z,62.20
2019-06-27T09:10:31.938Z,61.70
2019-06-27T09:13:01.054Z,61.50
2019-06-27T09:15:30.233Z,61.20
2019-06-27T09:18:00.195Z,61.00
2019-06-27T09:20:29.363Z,60.80
2019-06-27T09:22:58.476Z,60.70
2019-06-27T09:25:27.621Z,59.90
2019-06-27T09:27:56.698Z,59.60
2019-06-27T09:30:26.063Z,59.40
2019-06-27T09:32:55.221Z,59.30
2019-06-27T09:35:24.314Z,59.40
2019-06-27T09:37:53.442Z,59.10
2019-06-27T09:40:23.639Z,59.20
2019-06-27T09:42:52.743Z,58.60
2019-06-27T09:45:22.461Z,58.20
2019-06-27T09:47:51.606Z,57.80
2019-06-27T09:50:21.995Z,57.30
2019-06-27T09:52:51.089Z,57.10
2019-06-27T09:55:21.728Z,56.90
2019-06-27T09:57:50.868Z,56.80
2019-06-27T10:00:22.474Z,56.60
2019-06-27T10:02:51.653Z,56.70
2019-06-27T10:05:20.719Z,56.60
2019-06-27T10:07:49.838Z,56.50
2019-06-27T10:10:19.950Z,56.60
2019-06-27T10:12:49.064Z,56.00
2019-06-27T10:15:18.461Z,56.10
2019-06-27T10:17:47.566Z,56.00
2019-06-27T10:20:16.848Z,55.40
2019-06-27T10:22:45.941Z,55.20
2019-06-27T10:25:15.126Z,54.90
2019-06-27T10:27:44.234Z,54.50
2019-06-27T10:30:14.699Z,54.50
2019-06-27T10:32:57.754Z,54.50
2019-06-27T10:35:14.802Z,54.30
2019-06-27T10:37:43.894Z,54.50
2019-06-27T10:40:13.404Z,54.00
2019-06-27T10:42:42.502Z,53.60
2019-06-27T10:45:12.146Z,53.60
2019-06-27T10:47:41.238Z,52.80
2019-06-27T10:50:11.692Z,52.70
2019-06-27T10:52:40.922Z,52.60
2019-06-27T10:55:10.326Z,52.30
2019-06-27T10:57:39.438Z,52.00
2019-06-27T11:00:10.423Z,51.80
2019-06-27T11:02:39.725Z,51.90
2019-06-27T11:05:09.408Z,51.90
2019-06-27T11:07:40.974Z,51.80
2019-06-27T11:10:10.293Z,51.80
2019-06-27T11:12:39.462Z,51.70
2019-06-27T11:15:10.458Z,51.70
2019-06-27T11:17:39.577Z,51.30
2019-06-27T11:20:09.026Z,51.10
2019-06-27T11:22:38.217Z,50.70
2019-06-27T11:25:07.612Z,50.70
2019-06-27T11:27:36.677Z,50.50
2019-06-27T11:30:06.923Z,50.00
2019-06-27T11:32:36.119Z,50.00
2019-06-27T11:35:05.492Z,50.10
2019-06-27T11:37:34.621Z,50.10
2019-06-27T11:40:04.007Z,50.30
2019-06-27T11:42:33.105Z,50.40
2019-06-27T11:45:02.329Z,50.40
2019-06-27T11:47:34.533Z,50.00
2019-06-27T11:50:03.812Z,50.00
2019-06-27T11:52:32.996Z,50.10
2019-06-27T11:55:03.350Z,50.00
2019-06-27T11:57:32.409Z,50.00
2019-06-27T12:00:01.629Z,49.90
2019-06-27T12:02:30.885Z,49.80
2019-06-27T12:05:00.059Z,49.80
2019-06-27T12:07:29.152Z,49.70
2019-06-27T12:09:58.263Z,49.70
2019-06-27T12:12:27.351Z,50.00
2019-06-27T12:14:56.375Z,49.90
2019-06-27T12:17:25.502Z,49.90
2019-06-27T12:19:54.605Z,49.90
2019-06-27T12:22:23.759Z,49.60
2019-06-27T12:24:52.977Z,49.50
2019-06-27T12:27:22.142Z,49.40
2019-06-27T12:29:51.287Z,49.40
2019-06-27T12:32:20.384Z,49.50
2019-06-27T12:34:49.487Z,49.00
2019-06-27T12:37:18.633Z,48.60
2019-06-27T12:39:47.744Z,48.10
2019-06-27T12:42:31.580Z,47.90
2019-06-27T12:44:47.874Z,47.90
2019-06-27T12:47:16.989Z,48.00
2019-06-27T12:50:01.377Z,47.80
2019-06-27T12:52:16.920Z,47.50
2019-06-27T12:54:46.024Z,47.50
2019-06-27T12:57:15.104Z,47.70
2019-06-27T12:59:44.235Z,47.80
2019-06-27T13:02:13.349Z,47.40
2019-06-27T13:04:42.434Z,47.10
2019-06-27T13:07:11.570Z,46.50
2019-06-27T13:09:40.675Z,46.60
2019-06-27T13:12:09.756Z,46.70
2019-06-27T13:14:38.870Z,46.50
2019-06-27T13:17:07.980Z,46.40
2019-06-27T13:19:39.676Z,45.80
2019-06-27T13:22:07.908Z,45.80
2019-06-27T13:24:37.044Z,46.10
2019-06-27T13:27:06.192Z,46.30
2019-06-27T13:29:35.332Z,46.00
2019-06-27T13:32:04.399Z,45.80
2019-06-27T13:34:40.416Z,45.80
2019-06-27T13:37:04.317Z,45.70
2019-06-27T13:39:34.598Z,45.60
2019-06-27T13:42:03.772Z,45.80
2019-06-27T13:44:32.871Z,45.60
2019-06-27T13:47:01.972Z,45.70
2019-06-27T13:49:31.065Z,44.90
2019-06-27T13:52:00.141Z,45.20
2019-06-27T13:54:29.257Z,45.10
2019-06-27T13:56:58.345Z,44.70
2019-06-27T13:59:27.504Z,43.80
2019-06-27T14:01:56.696Z,43.70
2019-06-27T14:04:25.887Z,44.70
2019-06-27T14:06:55.064Z,44.30
2019-06-27T14:09:24.172Z,44.40
2019-06-27T14:11:53.269Z,44.20
2019-06-27T14:14:22.379Z,44.30
2019-06-27T14:16:51.494Z,44.20
2019-06-27T14:19:20.836Z,44.20
2019-06-27T14:21:50.435Z,44.10
2019-06-27T14:24:19.524Z,43.80
2019-06-27T14:26:48.696Z,43.50
2019-06-27T14:29:17.811Z,43.30
2019-06-27T14:31:46.943Z,43.50
2019-06-27T14:34:16.122Z,43.50
2019-06-27T14:36:45.208Z,43.40
2019-06-27T14:39:14.297Z,43.80
2019-06-27T14:41:43.408Z,43.60
2019-06-27T14:44:12.493Z,43.70
2019-06-27T14:46:41.603Z,43.30
2019-06-27T14:49:10.730Z,43.20
2019-06-27T14:51:39.891Z,43.00
2019-06-27T14:54:09.001Z,42.60
2019-06-27T14:56:38.110Z,42.60
2019-06-27T14:59:07.224Z,42.70
2019-06-27T15:01:36.324Z,42.80
2019-06-27T15:04:05.419Z,42.10
2019-06-27T15:06:34.508Z,42.10
2019-06-27T15:09:03.931Z,41.90
2019-06-27T15:11:32.984Z,41.90
2019-06-27T15:14:02.107Z,41.50
2019-06-27T15:16:31.314Z,41.60
2019-06-27T15:19:00.444Z,40.90
2019-06-27T15:21:29.548Z,41.30
2019-06-27T15:23:58.642Z,41.40
2019-06-27T15:26:27.804Z,40.90
2019-06-27T15:28:56.954Z,40.50
2019-06-27T15:31:26.075Z,40.50
2019-06-27T15:33:55.154Z,40.50
2019-06-27T15:36:24.254Z,40.60
2019-06-27T15:38:53.379Z,40.10
2019-06-27T15:41:22.607Z,40.10
2019-06-27T15:43:51.905Z,39.70
2019-06-27T15:46:21.029Z,39.70
2019-06-27T15:48:50.115Z,39.90
2019-06-27T15:51:19.264Z,40.00
2019-06-27T15:53:48.364Z,40.00
2019-06-27T15:56:17.503Z,39.10
2019-06-27T15:58:46.629Z,38.80
2019-06-27T16:01:15.796Z,39.60
2019-06-27T16:03:44.879Z,39.10
2019-06-27T16:06:15.130Z,39.40
2019-06-27T16:08:44.441Z,39.40
2019-06-27T16:11:13.525Z,39.30
2019-06-27T16:13:42.631Z,39.10
2019-06-27T16:16:11.841Z,38.40
2019-06-27T16:18:41.126Z,38.40
2019-06-27T16:21:10.315Z,38.40
2019-06-27T16:23:39.435Z,38.70
2019-06-27T16:26:08.525Z,38.70
2019-06-27T16:28:37.649Z,38.40
2019-06-27T16:31:06.758Z,38.30
2019-06-27T16:33:35.910Z,38.70
2019-06-27T16:36:05.085Z,38.10
2019-06-27T16:38:34.263Z,37.50
2019-06-27T16:41:03.384Z,37.40
2019-06-27T16:43:32.491Z,36.70
2019-06-27T16:46:01.679Z,36.80
2019-06-27T16:48:30.801Z,36.90
2019-06-27T16:50:59.897Z,36.70
2019-06-27T16:53:28.995Z,36.30
2019-06-27T16:55:58.212Z,36.00
2019-06-27T16:58:27.375Z,36.10
2019-06-27T17:00:56.480Z,35.90
2019-06-27T17:03:26.536Z,36.30
2019-06-27T17:05:55.721Z,36.10
2019-06-27T17:08:24.812Z,36.00
2019-06-27T17:10:53.939Z,36.50
2019-06-27T17:13:22.932Z,36.40
2019-06-27T17:15:52.123Z,35.70
2019-06-27T17:18:21.192Z,35.90
2019-06-27T17:20:50.348Z,35.70
2019-06-27T17:23:19.462Z,35.70
2019-06-27T17:25:48.542Z,34.80
2019-06-27T17:28:17.662Z,35.20
2019-06-27T17:30:46.801Z,34.70
2019-06-27T17:33:15.842Z,34.60
2019-06-27T17:35:45.235Z,34.10
2019-06-27T17:38:14.360Z,34.30
2019-06-27T17:40:43.498Z,34.50
2019-06-27T17:43:12.666Z,34.00
2019-06-27T17:45:41.728Z,34.20
2019-06-27T17:48:10.861Z,33.50
2019-06-27T17:50:39.954Z,33.50
2019-06-27T17:53:09.074Z,33.40
2019-06-27T17:55:38.155Z,33.40
2019-06-27T17:58:07.264Z,33.30
2019-06-27T18:00:36.380Z,32.90
2019-06-27T18:03:05.586Z,33.10
2019-06-27T18:05:34.572Z,33.40
2019-06-27T18:08:03.678Z,33.40
2019-06-27T18:10:32.765Z,33.40
2019-06-27T18:13:01.906Z,33.50
2019-06-27T18:15:31.077Z,33.30
2019-06-27T18:18:00.192Z,33.60
2019-06-27T18:20:29.284Z,32.80
2019-06-27T18:22:58.405Z,32.60
2019-06-27T18:25:27.490Z,32.20
2019-06-27T18:27:56.601Z,31.90
2019-06-27T18:30:25.781Z,31.90
2019-06-27T18:32:54.931Z,31.90
2019-06-27T18:35:24.020Z,31.60
2019-06-27T18:37:53.169Z,31.50
2019-06-27T18:40:22.472Z,31.70
2019-06-27T18:42:51.586Z,31.60
2019-06-27T18:45:20.830Z,31.60
2019-06-27T18:47:49.969Z,31.00
2019-06-27T18:50:19.226Z,30.90
2019-06-27T18:52:48.353Z,31.00
2019-06-27T18:55:17.369Z,30.80
2019-06-27T18:57:46.478Z,30.60
2019-06-27T19:00:15.776Z,30.90
2019-06-27T19:02:44.850Z,30.60
2019-06-27T19:05:14.077Z,30.80
2019-06-27T19:07:45.981Z,30.80
2019-06-27T19:10:14.504Z,30.80
2019-06-27T19:12:43.643Z,30.70
2019-06-27T19:15:13.173Z,30.90
2019-06-27T19:17:42.301Z,31.00
2019-06-27T19:20:36.752Z,31.00
2019-06-27T19:23:24.910Z,31.10
2019-06-27T19:25:56.485Z,31.20
2019-06-27T19:28:25.603Z,31.40
2019-06-27T19:30:54.823Z,31.60
2019-06-27T19:33:23.841Z,31.60
2019-06-27T19:35:52.934Z,31.60
2019-06-27T19:38:22.027Z,31.80
2019-06-27T19:40:51.112Z,31.90
2019-06-27T19:43:27.916Z,32.20
2019-06-27T19:45:51.024Z,32.20
2019-06-27T19:48:21.455Z,32.40
2019-06-27T19:50:50.934Z,32.50
2019-06-27T19:53:20.053Z,32.80
2019-06-27T19:55:49.163Z,32.90
2019-06-27T19:58:18.259Z,32.90
2019-06-27T20:00:47.374Z,33.10
2019-06-27T20:03:16.489Z,33.10
2019-06-27T20:05:45.697Z,33.10
2019-06-27T20:08:19.707Z,33.20
2019-06-27T20:10:46.040Z,33.70
2019-06-27T20:13:15.177Z,33.50
2019-06-27T20:15:44.272Z,33.70
2019-06-27T20:18:13.372Z,33.70
2019-06-27T20:20:42.570Z,33.80
2019-06-27T20:23:11.715Z,33.90
2019-06-27T20:25:40.859Z,34.00
2019-06-27T20:28:10.012Z,34.00
2019-06-27T20:30:39.160Z,34.30
2019-06-27T20:33:08.306Z,34.50
2019-06-27T20:35:37.335Z,34.50
2019-06-27T20:38:06.477Z,35.40
2019-06-27T20:40:35.601Z,34.80
2019-06-27T20:43:04.842Z,34.90
2019-06-27T20:45:34.153Z,35.00
2019-06-27T20:48:03.406Z,35.10
2019-06-27T20:50:32.496Z,35.20
2019-06-27T20:53:01.634Z,35.40
2019-06-27T20:55:30.768Z,35.50
2019-06-27T20:57:59.854Z,35.50
2019-06-27T21:00:28.986Z,35.70
2019-06-27T21:02:58.091Z,35.80
2019-06-27T21:05:27.242Z,35.80
2019-06-27T21:07:56.362Z,35.90
2019-06-27T21:10:25.471Z,36.00
2019-06-27T21:12:54.565Z,36.10
2019-06-27T21:15:23.838Z,36.10
2019-06-27T21:17:52.978Z,36.20
2019-06-27T21:20:22.089Z,36.30
2019-06-27T21:22:51.229Z,36.30
2019-06-27T21:25:20.320Z,36.30
2019-06-27T21:27:49.455Z,36.50
2019-06-27T21:30:18.638Z,37.20
2019-06-27T21:32:48.571Z,36.60
2019-06-27T21:35:17.959Z,36.70
2019-06-27T21:37:48.702Z,36.80
2019-06-27T21:40:18.507Z,36.90
2019-06-27T21:42:47.745Z,37.00
2019-06-27T21:45:17.253Z,37.10
2019-06-27T21:47:46.388Z,37.10
2019-06-27T21:50:15.768Z,37.20
2019-06-27T21:52:44.865Z,37.20
2019-06-27T21:55:14.019Z,37.30
2019-06-27T21:57:43.136Z,37.50
2019-06-27T22:00:12.934Z,37.60
2019-06-27T22:02:42.061Z,37.70
2019-06-27T22:05:12.737Z,37.80
2019-06-27T22:07:43.638Z,38.00
2019-06-27T22:10:14.099Z,38.30
2019-06-27T22:12:43.292Z,38.50
2019-06-27T22:15:12.837Z,38.50
2019-06-27T22:17:41.961Z,38.70
2019-06-27T22:20:15.536Z,38.90
2019-06-27T22:22:42.881Z,38.90
2019-06-27T22:25:12.204Z,39.00
2019-06-27T22:27:41.432Z,39.10
2019-06-27T22:30:11.829Z,39.30
2019-06-27T22:32:40.930Z,39.40
2019-06-27T22:35:10.366Z,40.30
2019-06-27T22:37:38.678Z,39.60
2019-06-27T22:40:26.201Z,39.60
2019-06-27T22:43:13.451Z,39.70
2019-06-27T22:46:00.720Z,39.60
2019-06-27T22:48:29.276Z,39.70
2019-06-27T22:51:06.388Z,39.70
2019-06-27T22:53:40.373Z,39.60
2019-06-27T22:56:09.548Z,39.60
2019-06-27T22:58:38.648Z,39.60
2019-06-27T23:01:07.949Z,39.70
2019-06-27T23:03:37.080Z,39.70
2019-06-27T23:06:06.356Z,39.80
2019-06-27T23:08:35.482Z,39.80
2019-06-27T23:11:04.576Z,39.80
2019-06-27T23:13:33.708Z,40.00
2019-06-27T23:16:02.798Z,40.00
2019-06-27T23:18:31.910Z,40.00
2019-06-27T23:21:01.043Z,40.10
2019-06-27T23:23:30.163Z,40.20
2019-06-27T23:25:59.246Z,40.20
2019-06-27T23:28:28.354Z,40.30
2019-06-27T23:30:57.388Z,40.50
2019-06-27T23:33:26.508Z,40.50
2019-06-27T23:35:56.710Z,40.80
2019-06-27T23:38:25.859Z,40.90
2019-06-27T23:40:54.936Z,41.10
2019-06-27T23:43:24.059Z,41.20
2019-06-27T23:45:53.240Z,41.30
2019-06-27T23:48:22.319Z,41.40
2019-06-27T23:50:52.889Z,41.60
2019-06-27T23:53:21.999Z,41.60
2019-06-27T23:55:51.115Z,41.80
2019-06-27T23:58:20.186Z,42.00
